Time;durP1;ratioP1;P1;durP2;ratioP2;P2;SDS_P1;SDS_P2;PMS_P1;PMS_P2;Temp;Humidity;BMP_temperature;BMP_pressure;BME280_temperature;BME280_humidity;BME280_pressure;Samples;Min_cycle;Max_cycle;Signal;HPM_P1;HPM_P2
2023/08/27 00:02:32;;;;;;;7.07;4.10;;;15.80;76.20;;;;;;5001372;28;20054;-92
2023/08/27 00:05:56;;;;;;;6.47;3.95;;;15.80;76.20;;;;;;5017477;28;20050;-92
2023/08/27 00:08:26;;;;;;;5.03;3.60;;;15.80;75.90;;;;;;5001216;28;20496;-93
2023/08/27 00:10:59;;;;;;;5.93;3.58;;;15.80;76.10;;;;;;5001072;28;20227;-92
2023/08/27 00:13:32;;;;;;;5.68;3.50;;;15.80;76.10;;;;;;5000834;28;20046;-93
2023/08/27 00:16:09;;;;;;;4.70;3.30;;;15.80;76.00;;;;;;4999843;28;20058;-92
2023/08/27 00:18:37;;;;;;;4.80;3.40;;;15.80;76.00;;;;;;5000793;28;20475;-93
2023/08/27 00:21:12;;;;;;;4.87;3.10;;;15.80;75.80;;;;;;5000880;28;20060;-92
2023/08/27 00:23:41;;;;;;;4.53;3.15;;;15.70;75.70;;;;;;5000950;28;21205;-93
2023/08/27 00:26:15;;;;;;;4.43;3.20;;;15.60;75.40;;;;;;4999501;28;20058;-93
2023/08/27 00:32:51;;;;;;;5.30;3.00;;;15.50;75.40;;;;;;4981458;28;20046;-93
2023/08/27 00:35:29;;;;;;;4.57;2.90;;;15.50;75.40;;;;;;4981316;28;20054;-92
2023/08/27 00:38:27;;;;;;;4.13;2.60;;;15.40;75.60;;;;;;4998034;28;20286;-91
2023/08/27 00:40:58;;;;;;;3.70;2.50;;;15.40;75.50;;;;;;4981221;28;20051;-93
2023/08/27 00:43:27;;;;;;;3.95;2.70;;;15.40;75.70;;;;;;4981343;28;20101;-93
2023/08/27 00:46:06;;;;;;;3.60;1.98;;;15.40;75.70;;;;;;4981006;28;20051;-91
2023/08/27 00:49:33;;;;;;;3.30;1.97;;;15.30;75.90;;;;;;4981471;28;20505;-92
2023/08/27 00:52:08;;;;;;;3.30;2.13;;;15.30;75.80;;;;;;4980934;28;20353;-92
2023/08/27 00:54:38;;;;;;;4.18;2.38;;;15.20;76.00;;;;;;4980829;28;20101;-93
2023/08/27 00:57:34;;;;;;;4.05;2.38;;;15.20;76.00;;;;;;4997373;28;20047;-93
2023/08/27 01:00:09;;;;;;;3.63;2.28;;;15.20;76.00;;;;;;4981128;28;20780;-91
2023/08/27 01:02:37;;;;;;;3.63;2.20;;;15.20;76.10;;;;;;4980918;28;20124;-92
2023/08/27 01:05:10;;;;;;;5.20;2.67;;;15.20;76.10;;;;;;4980853;28;20287;-93
2023/08/27 01:07:50;;;;;;;3.90;2.53;;;15.20;76.20;;;;;;4980840;28;20059;-92
2023/08/27 01:10:32;;;;;;;5.20;2.38;;;15.10;76.20;;;;;;4980053;28;20053;-92
2023/08/27 01:13:30;;;;;;;3.50;2.20;;;15.10;76.40;;;;;;4980867;28;20142;-93
2023/08/27 01:16:03;;;;;;;3.53;2.10;;;15.10;76.30;;;;;;4980778;28;20049;-91
2023/08/27 01:18:59;;;;;;;4.80;2.60;;;15.00;76.50;;;;;;4980354;28;20255;-93
2023/08/27 01:21:39;;;;;;;3.60;1.90;;;15.10;76.40;;;;;;4980303;28;20093;-93
2023/08/27 01:24:09;;;;;;;4.53;2.70;;;15.00;76.60;;;;;;4981058;28;20077;-92
2023/08/27 01:30:24;;;;;;;6.33;3.07;;;15.00;76.80;;;;;;4980723;28;20043;-91
2023/08/27 01:33:22;;;;;;;4.88;2.88;;;15.00;76.90;;;;;;4979859;28;20354;-91
2023/08/27 01:35:51;;;;;;;4.30;2.90;;;15.00;77.00;;;;;;4980612;28;20053;-93
2023/08/27 01:38:22;;;;;;;6.47;3.35;;;15.00;77.20;;;;;;4980937;28;20824;-91
2023/08/27 01:41:07;;;;;;;5.95;3.90;;;15.00;77.20;;;;;;4980346;28;20046;-93
2023/08/27 01:43:37;;;;;;;5.87;3.67;;;15.00;77.40;;;;;;4980425;28;20918;-94
2023/08/27 01:46:04;;;;;;;5.75;3.70;;;15.00;77.50;;;;;;4980243;28;20251;-93
2023/08/27 01:48:57;;;;;;;4.90;3.22;;;14.90;77.60;;;;;;4980301;28;21133;-92
2023/08/27 01:51:37;;;;;;;5.53;3.45;;;14.90;77.70;;;;;;4980144;28;20042;-93
2023/08/27 01:54:07;;;;;;;5.00;3.30;;;14.90;77.80;;;;;;4980049;28;20050;-92
2023/08/27 01:56:35;;;;;;;5.00;3.23;;;14.90;77.90;;;;;;4979966;28;20106;-93
2023/08/27 01:59:07;;;;;;;6.60;3.58;;;14.90;77.90;;;;;;4980716;28;20350;-93
2023/08/27 02:01:41;;;;;;;5.97;3.78;;;14.90;78.00;;;;;;4980100;28;20493;-90
2023/08/27 02:05:13;;;;;;;6.07;4.10;;;14.80;77.90;;;;;;4980031;28;20927;-92
2023/08/27 02:07:45;;;;;;;6.15;4.38;;;14.80;77.80;;;;;;4979447;28;20074;-92
2023/08/27 02:10:18;;;;;;;6.73;4.57;;;14.80;77.90;;;;;;4996414;28;20047;-91
2023/08/27 02:12:46;;;;;;;6.47;4.88;;;14.80;78.00;;;;;;4980005;28;21153;-92
2023/08/27 02:15:23;;;;;;;6.57;5.03;;;14.80;77.90;;;;;;4979869;28;20062;-92
2023/08/27 02:17:51;;;;;;;7.28;4.90;;;14.80;78.20;;;;;;4980040;28;20098;-92
2023/08/27 02:20:19;;;;;;;6.68;4.53;;;14.80;78.10;;;;;;4979738;28;20059;-91
2023/08/27 02:23:13;;;;;;;6.97;4.57;;;14.80;78.30;;;;;;4978763;28;20080;-91
2023/08/27 02:25:52;;;;;;;7.00;5.13;;;14.80;78.40;;;;;;4979648;28;20715;-92
2023/08/27 02:28:23;;;;;;;8.15;5.15;;;14.80;78.40;;;;;;4979828;28;20054;-92
2023/08/27 02:30:52;;;;;;;6.25;4.60;;;14.80;78.40;;;;;;4979790;28;20051;-92
2023/08/27 02:33:29;;;;;;;7.78;5.00;;;14.80;78.30;;;;;;4979230;28;20121;-93
2023/08/27 02:36:22;;;;;;;7.70;4.90;;;14.80;78.40;;;;;;4979663;28;20082;-92
2023/08/27 02:38:55;;;;;;;8.95;5.10;;;14.80;78.30;;;;;;4979460;28;20258;-92
2023/08/27 02:41:35;;;;;;;7.30;5.30;;;14.80;78.40;;;;;;4979482;28;20819;-92
2023/08/27 02:44:06;;;;;;;6.95;4.78;;;14.80;78.30;;;;;;4979732;28;20046;-92
2023/08/27 02:47:05;;;;;;;7.57;5.20;;;14.80;78.40;;;;;;4979296;28;20047;-91
2023/08/27 02:49:39;;;;;;;7.20;5.23;;;14.80;78.40;;;;;;4979776;28;20053;-92
2023/08/27 02:52:19;;;;;;;6.68;4.82;;;14.80;78.40;;;;;;4979544;28;20259;-92
2023/08/27 02:54:57;;;;;;;7.55;4.95;;;14.80;78.50;;;;;;4979601;28;20059;-94
2023/08/27 02:57:53;;;;;;;7.03;4.82;;;14.80;78.70;;;;;;4978831;28;20508;-93
2023/08/27 03:00:39;;;;;;;6.90;5.00;;;14.80;78.80;;;;;;4979342;28;20118;-92
2023/08/27 03:03:09;;;;;;;7.13;5.10;;;14.70;78.90;;;;;;4979574;28;20110;-91
2023/08/27 03:05:44;;;;;;;7.75;5.25;;;14.70;79.00;;;;;;4980136;28;20255;-92
2023/08/27 03:08:42;;;;;;;8.10;4.93;;;14.70;79.00;;;;;;4980023;28;20050;-93
2023/08/27 03:11:39;;;;;;;7.07;4.95;;;14.70;79.10;;;;;;4980200;28;20057;-91
2023/08/27 03:14:11;;;;;;;7.15;5.15;;;14.70;79.10;;;;;;4979355;28;20062;-91
2023/08/27 03:16:46;;;;;;;7.30;5.00;;;14.70;79.20;;;;;;4979024;28;20047;-92
2023/08/27 03:19:19;;;;;;;8.35;4.78;;;14.70;79.40;;;;;;4979063;28;20271;-92
2023/08/27 03:22:01;;;;;;;6.95;4.78;;;14.70;79.50;;;;;;4979566;28;20150;-93
2023/08/27 03:24:45;;;;;;;8.68;5.35;;;14.70;79.70;;;;;;4978662;28;20050;-92
2023/08/27 03:27:45;;;;;;;7.00;4.90;;;14.70;79.90;;;;;;4978748;28;20063;-92
2023/08/27 03:34:23;;;;;;;5.97;4.57;;;14.60;80.10;;;;;;4980399;28;20250;-92
2023/08/27 03:36:57;;;;;;;7.32;4.90;;;14.60;80.20;;;;;;4982199;28;20051;-90
2023/08/27 03:39:45;;;;;;;8.15;4.90;;;14.60;80.30;;;;;;4982957;28;20046;-93
2023/08/27 03:46:25;;;;;;;6.67;4.87;;;14.50;80.50;;;;;;4982386;28;20440;-92
2023/08/27 03:49:29;;;;;;;6.57;4.57;;;14.50;80.70;;;;;;4998072;28;20309;-92
2023/08/27 03:52:34;;;;;;;6.93;4.50;;;14.50;80.80;;;;;;4907845;29;20083;-92
2023/08/27 03:55:25;;;;;;;6.80;4.43;;;14.50;80.80;;;;;;4938592;28;20060;-92
2023/08/27 04:01:59;;;;;;;6.73;4.50;;;14.50;81.00;;;;;;4969308;28;20056;-92
2023/08/27 04:05:01;;;;;;;6.20;4.28;;;14.50;80.90;;;;;;4998101;28;20340;-91
2023/08/27 04:08:00;;;;;;;7.28;4.03;;;14.50;81.00;;;;;;5001236;28;20065;-92
2023/08/27 04:10:54;;;;;;;6.65;4.20;;;14.50;81.00;;;;;;4994196;28;20073;-92
2023/08/27 04:14:00;;;;;;;5.78;4.30;;;14.50;81.00;;;;;;5001504;28;20508;-92
2023/08/27 04:20:29;;;;;;;5.78;3.95;;;14.50;80.90;;;;;;4959378;28;20357;-93
2023/08/27 04:23:38;;;;;;;6.05;4.00;;;14.50;80.90;;;;;;4981870;28;20058;-93
2023/08/27 04:26:41;;;;;;;6.30;4.10;;;14.60;80.80;;;;;;4982031;28;20051;-92
2023/08/27 04:33:15;;;;;;;6.67;4.27;;;14.60;80.60;;;;;;4981587;28;20053;-93
2023/08/27 04:35:55;;;;;;;6.38;4.60;;;14.60;80.60;;;;;;4982009;28;20346;-92
2023/08/27 04:38:34;;;;;;;6.45;4.43;;;14.60;80.50;;;;;;4981122;28;20047;-92
2023/08/27 04:44:35;;;;;;;6.18;4.00;;;14.50;80.50;;;;;;4980308;28;20136;-92
2023/08/27 04:47:25;;;;;;;6.73;4.40;;;14.50;80.50;;;;;;4981557;28;20058;-91
2023/08/27 04:50:30;;;;;;;6.03;4.10;;;14.50;80.60;;;;;;4997053;28;20255;-92
2023/08/27 04:54:06;;;;;;;6.57;4.35;;;14.40;80.70;;;;;;4981147;28;21175;-92
2023/08/27 05:00:48;;;;;;;;;;;;;;;;;;;;;
2023/08/27 05:03:41;;;;;;;6.03;4.20;;;14.40;80.70;;;;;;4997648;28;20051;-91
2023/08/27 05:11:35;;;;;;;6.82;4.30;;;14.40;80.80;;;;;;4997459;28;20050;-92
2023/08/27 05:14:49;;;;;;;7.32;4.30;;;14.40;80.70;;;;;;4897509;28;20048;-93
2023/08/27 05:17:20;;;;;;;7.05;4.65;;;14.30;80.80;;;;;;4965916;28;20061;-92
2023/08/27 05:20:06;;;;;;;7.10;4.40;;;14.40;81.00;;;;;;5015605;28;20106;-92
2023/08/27 05:22:40;;;;;;;8.48;5.28;;;14.40;81.10;;;;;;4996909;28;20273;-90
2023/08/27 05:25:12;;;;;;;7.65;5.15;;;14.40;81.60;;;;;;4999314;28;20057;-92
2023/08/27 05:27:45;;;;;;;7.03;4.53;;;14.40;81.50;;;;;;5010059;28;20062;-92
2023/08/27 05:30:28;;;;;;;8.07;4.72;;;14.40;81.50;;;;;;4999569;28;20053;-92
2023/08/27 05:33:14;;;;;;;7.70;4.60;;;14.40;82.10;;;;;;4999658;28;20062;-92
2023/08/27 05:35:58;;;;;;;6.57;4.50;;;14.40;82.00;;;;;;4999036;28;21158;-92
2023/08/27 05:38:42;;;;;;;7.15;4.28;;;14.50;82.10;;;;;;4999725;28;20061;-92
2023/08/27 05:41:28;;;;;;;9.05;4.90;;;14.50;82.30;;;;;;4999476;28;20038;-92
2023/08/27 05:43:57;;;;;;;7.40;4.40;;;14.50;82.50;;;;;;4999229;28;20066;-93
2023/08/27 05:46:27;;;;;;;7.93;4.63;;;14.50;82.60;;;;;;4999374;28;20053;-93
2023/08/27 05:49:06;;;;;;;7.07;4.80;;;14.50;82.70;;;;;;5000048;28;20274;-92
2023/08/27 05:51:41;;;;;;;8.20;4.97;;;14.50;82.80;;;;;;4999144;28;20047;-92
2023/08/27 05:55:18;;;;;;;8.73;4.82;;;14.50;83.10;;;;;;4999547;28;20145;-92
2023/08/27 07:51:35;;;;;;;5.82;3.35;;;14.80;84.00;;;;;;4964357;28;20276;-93
2023/08/27 08:01:20;;;;;;;4.88;2.40;;;14.80;84.10;;;;;;5009535;28;20051;-83
2023/08/27 08:03:49;;;;;;;6.40;2.97;;;14.90;84.20;;;;;;4985668;28;20051;-87
2023/08/27 08:06:16;;;;;;;6.30;2.75;;;14.90;84.20;;;;;;4985222;28;20766;-86
2023/08/27 08:08:52;;;;;;;5.63;2.80;;;14.90;84.40;;;;;;4986274;28;20050;-94
2023/08/27 08:11:44;;;;;;;6.03;3.08;;;14.90;84.30;;;;;;4982105;28;20179;-93
2023/08/27 08:14:11;;;;;;;5.30;2.80;;;15.00;84.50;;;;;;4983224;28;20055;-83
2023/08/27 08:16:47;;;;;;;4.77;2.30;;;15.00;84.30;;;;;;4984719;28;20567;-93
2023/08/27 08:19:24;;;;;;;6.75;2.70;;;15.00;84.00;;;;;;4977302;28;20255;-93
2023/08/27 08:21:53;;;;;;;7.55;2.53;;;15.10;83.70;;;;;;4978346;28;20125;-85
2023/08/27 08:24:27;;;;;;;5.35;2.88;;;15.20;83.50;;;;;;5001062;28;20054;-89
2023/08/27 08:26:56;;;;;;;7.53;3.22;;;15.20;83.30;;;;;;4987727;28;20059;-88
2023/08/27 08:29:23;;;;;;;5.73;2.70;;;15.30;83.40;;;;;;4988552;28;20110;-87
2023/08/27 08:31:50;;;;;;;5.70;2.80;;;15.30;83.30;;;;;;5003444;28;20251;-87
2023/08/27 08:34:18;;;;;;;5.18;2.45;;;15.30;83.30;;;;;;4976307;28;20058;-88
2023/08/27 08:36:45;;;;;;;5.30;2.80;;;15.40;83.30;;;;;;4982387;28;20852;-87
2023/08/27 08:39:12;;;;;;;9.05;2.78;;;15.40;83.40;;;;;;4986526;28;20138;-87
2023/08/27 08:41:52;;;;;;;6.10;2.80;;;15.50;83.40;;;;;;4983354;28;20082;-88
2023/08/27 08:44:44;;;;;;;8.00;2.80;;;15.60;82.80;;;;;;4996866;28;21096;-89
2023/08/27 08:47:14;;;;;;;5.28;2.75;;;15.60;82.70;;;;;;4990897;28;20089;-86
2023/08/27 08:49:44;;;;;;;4.85;2.58;;;15.60;82.70;;;;;;4988416;28;20046;-90
2023/08/27 08:52:20;;;;;;;7.13;2.70;;;15.70;82.40;;;;;;4974393;28;20071;-86
2023/08/27 08:54:54;;;;;;;5.47;2.40;;;15.80;82.90;;;;;;4990399;28;20127;-84
2023/08/27 08:57:46;;;;;;;7.07;2.70;;;15.80;82.90;;;;;;4988759;28;20990;-92
2023/08/27 09:00:38;;;;;;;6.20;3.00;;;16.00;82.20;;;;;;4981849;28;20050;-90
2023/08/27 09:03:05;;;;;;;5.18;2.50;;;16.00;81.70;;;;;;4972404;28;20058;-83
2023/08/27 09:05:34;;;;;;;5.25;2.85;;;16.00;81.60;;;;;;5002791;28;20506;-90
2023/08/27 09:08:05;;;;;;;5.23;2.60;;;16.10;81.70;;;;;;4981722;28;20150;-85
2023/08/27 09:10:36;;;;;;;6.40;2.70;;;16.10;81.40;;;;;;4988477;28;21323;-83
2023/08/27 09:13:06;;;;;;;6.90;3.38;;;16.20;81.00;;;;;;4990595;28;20059;-82
2023/08/27 09:15:38;;;;;;;5.80;2.90;;;16.20;81.10;;;;;;4992387;28;20432;-92
2023/08/27 09:18:33;;;;;;;5.88;3.20;;;16.30;81.00;;;;;;4986670;28;20094;-94
2023/08/27 09:21:34;;;;;;;4.57;2.40;;;16.40;81.10;;;;;;4999344;28;20108;-91
2023/08/27 09:24:16;;;;;;;7.30;3.17;;;16.50;81.10;;;;;;4983240;28;20259;-94
2023/08/27 09:26:44;;;;;;;4.78;2.80;;;16.50;80.70;;;;;;4979900;28;20050;-95
2023/08/27 09:29:25;;;;;;;4.80;2.50;;;16.60;79.90;;;;;;4979628;28;20062;-90
2023/08/27 09:32:22;;;;;;;5.28;2.30;;;16.70;78.80;;;;;;4993815;28;20047;-92
2023/08/27 09:35:02;;;;;;;5.93;2.60;;;16.80;78.00;;;;;;4999903;28;20107;-91
2023/08/27 09:37:39;;;;;;;6.18;3.25;;;16.80;77.80;;;;;;4997172;28;20966;-92
2023/08/27 09:40:09;;;;;;;5.50;3.20;;;16.80;78.40;;;;;;4999220;28;20149;-91
2023/08/27 09:42:39;;;;;;;5.30;2.65;;;16.90;78.10;;;;;;4997992;28;20450;-90
2023/08/27 09:45:09;;;;;;;5.47;2.75;;;17.00;77.50;;;;;;4997296;28;20099;-91
2023/08/27 09:47:39;;;;;;;6.50;3.07;;;17.00;77.10;;;;;;4999014;28;20112;-93
2023/08/27 09:50:07;;;;;;;6.60;3.00;;;17.10;77.00;;;;;;5012269;28;20250;-87
2023/08/27 09:52:39;;;;;;;9.98;3.75;;;17.20;76.70;;;;;;4991533;28;20035;-93
2023/08/27 09:55:13;;;;;;;5.68;2.58;;;17.20;76.20;;;;;;4979565;28;20078;-92
2023/08/27 09:57:53;;;;;;;6.35;2.53;;;17.30;75.50;;;;;;4979229;28;20066;-93
2023/08/27 10:00:28;;;;;;;4.87;2.63;;;17.40;74.60;;;;;;4984348;28;20043;-93
2023/08/27 10:02:56;;;;;;;8.02;3.45;;;17.40;74.30;;;;;;4993661;28;20258;-92
2023/08/27 10:05:52;;;;;;;7.07;3.30;;;17.40;74.40;;;;;;4979842;28;20576;-93
2023/08/27 10:08:21;;;;;;;5.85;3.47;;;17.50;74.40;;;;;;4988572;28;20580;-86
2023/08/27 10:10:49;;;;;;;7.28;3.90;;;17.50;74.30;;;;;;4971332;28;20058;-86
2023/08/27 10:16:08;;;;;;;6.03;3.78;;;17.50;73.90;;;;;;4994651;28;21378;-89
2023/08/27 10:18:41;;;;;;;7.53;3.85;;;17.60;73.30;;;;;;4995699;28;20170;-91
2023/08/27 10:21:10;;;;;;;6.85;3.80;;;17.50;73.90;;;;;;4985352;28;20050;-90
2023/08/27 10:23:40;;;;;;;6.82;3.85;;;17.50;74.30;;;;;;4982044;28;20122;-91
2023/08/27 10:26:10;;;;;;;7.73;3.40;;;17.50;74.10;;;;;;4977813;28;20050;-86
2023/08/27 10:28:37;;;;;;;6.78;3.97;;;17.60;74.40;;;;;;4990679;28;20361;-87
2023/08/27 10:31:06;;;;;;;6.55;4.10;;;17.60;74.70;;;;;;4993786;28;20518;-85
2023/08/27 10:37:57;;;;;;;7.00;3.75;;;17.70;74.50;;;;;;4993550;28;20070;-91
2023/08/27 10:40:37;;;;;;;4.50;2.97;;;17.80;74.30;;;;;;4978961;28;20059;-93
2023/08/27 10:43:10;;;;;;;5.13;3.40;;;17.80;73.80;;;;;;4977456;28;20254;-94
2023/08/27 10:45:44;;;;;;;4.65;2.22;;;17.80;74.00;;;;;;4978671;28;20130;-91
2023/08/27 10:48:26;;;;;;;6.20;3.42;;;17.80;73.80;;;;;;4988283;28;20920;-90
2023/08/27 10:50:56;;;;;;;6.18;4.05;;;17.80;74.40;;;;;;4993611;28;20082;-87
2023/08/27 10:53:24;;;;;;;7.47;4.30;;;17.70;74.70;;;;;;4981732;28;20085;-87
2023/08/27 10:55:52;;;;;;;6.20;3.78;;;17.60;74.90;;;;;;5004875;28;20738;-89
2023/08/27 10:58:25;;;;;;;5.97;3.60;;;17.60;75.10;;;;;;4997538;28;20058;-90
2023/08/27 11:01:03;;;;;;;6.30;3.70;;;17.50;75.20;;;;;;4991814;28;20460;-86
2023/08/27 11:03:52;;;;;;;5.95;3.78;;;17.50;75.40;;;;;;4992813;28;20546;-89
2023/08/27 11:06:32;;;;;;;7.93;3.83;;;17.50;75.50;;;;;;4994572;28;20064;-87
2023/08/27 11:09:01;;;;;;;6.90;3.35;;;17.50;75.70;;;;;;4984617;28;20598;-91
2023/08/27 11:11:31;;;;;;;6.05;3.65;;;17.50;75.80;;;;;;4983265;28;20124;-92
2023/08/27 11:14:05;;;;;;;6.65;3.70;;;17.50;76.10;;;;;;4993473;28;20739;-88
2023/08/27 11:16:32;;;;;;;5.95;4.03;;;17.50;76.20;;;;;;4975294;28;20054;-87
2023/08/27 11:19:00;;;;;;;6.77;4.10;;;17.50;76.40;;;;;;4977167;28;20134;-89
2023/08/27 11:21:45;;;;;;;6.97;4.07;;;17.50;76.50;;;;;;4978450;28;20617;-88
2023/08/27 11:24:17;;;;;;;8.65;4.40;;;17.50;76.30;;;;;;4989376;28;20114;-89
2023/08/27 11:26:47;;;;;;;8.23;4.85;;;17.50;76.40;;;;;;4991341;28;20144;-89
2023/08/27 11:29:15;;;;;;;8.05;4.50;;;17.50;76.70;;;;;;4996104;28;20054;-88
2023/08/27 11:32:22;;;;;;;;;;;;;;;;;;;;;
2023/08/27 11:34:53;;;;;;;7.57;5.05;;;17.50;77.20;;;;;;4985946;28;20278;-85
2023/08/27 11:37:31;;;;;;;8.98;4.75;;;17.50;77.40;;;;;;4988440;28;20056;-85
2023/08/27 11:39:59;;;;;;;9.32;4.45;;;17.50;77.60;;;;;;5005365;28;20055;-84
2023/08/27 11:42:26;;;;;;;7.60;4.45;;;17.50;77.50;;;;;;4989405;28;20194;-85
2023/08/27 11:44:54;;;;;;;8.10;4.87;;;17.50;76.70;;;;;;5006144;28;20137;-86
2023/08/27 11:47:23;;;;;;;8.18;3.90;;;17.50;76.50;;;;;;4989524;28;20278;-84
2023/08/27 11:49:56;;;;;;;5.63;3.33;;;17.40;76.40;;;;;;5005989;28;20054;-86
2023/08/27 11:52:24;;;;;;;6.85;3.40;;;17.20;76.00;;;;;;4991267;28;20057;-86
2023/08/27 11:54:56;;;;;;;6.38;2.83;;;17.20;75.60;;;;;;4988352;28;20165;-88
2023/08/27 11:57:24;;;;;;;5.83;3.20;;;17.20;74.30;;;;;;4998660;28;20492;-87
2023/08/27 11:59:53;;;;;;;6.13;2.92;;;17.10;73.40;;;;;;5012773;28;20958;-91
2023/08/27 12:02:21;;;;;;;5.18;2.42;;;17.00;73.50;;;;;;4991726;28;20145;-89
2023/08/27 12:04:49;;;;;;;6.22;2.88;;;16.90;73.50;;;;;;4975251;28;20098;-87
2023/08/27 12:07:28;;;;;;;5.90;3.40;;;16.80;73.50;;;;;;4983427;28;20070;-86
2023/08/27 12:09:55;;;;;;;5.77;3.17;;;16.60;74.20;;;;;;4988738;28;20090;-87
2023/08/27 12:12:26;;;;;;;7.50;3.65;;;16.60;75.00;;;;;;4987875;28;20269;-87
2023/08/27 12:14:53;;;;;;;7.40;4.18;;;16.50;75.90;;;;;;4991108;28;20087;-87
2023/08/27 12:17:21;;;;;;;6.38;3.78;;;16.50;77.00;;;;;;4993590;28;20050;-89
2023/08/27 12:19:49;;;;;;;8.13;5.05;;;16.40;78.60;;;;;;4984008;28;20050;-85
2023/08/27 12:22:17;;;;;;;8.47;4.43;;;16.50;79.20;;;;;;4989609;28;20062;-86
2023/08/27 12:24:46;;;;;;;7.97;4.70;;;16.50;80.50;;;;;;5000592;28;20723;-86
2023/08/27 12:27:17;;;;;;;6.25;4.40;;;16.50;80.80;;;;;;4983135;28;20145;-90
2023/08/27 12:29:46;;;;;;;6.63;2.30;;;16.60;81.10;;;;;;5003393;28;20039;-93
2023/08/27 12:32:16;;;;;;;5.75;3.42;;;16.60;80.60;;;;;;4982960;28;20061;-88
2023/08/27 12:34:49;;;;;;;3.93;2.10;;;16.70;79.60;;;;;;4983511;28;20053;-89
2023/08/27 12:37:18;;;;;;;3.17;1.30;;;16.70;78.70;;;;;;4991403;28;20280;-87
2023/08/27 12:39:47;;;;;;;3.25;1.50;;;16.80;75.90;;;;;;4990043;28;20054;-88
2023/08/27 12:42:15;;;;;;;3.40;0.98;;;16.80;74.70;;;;;;4997575;28;20499;-86
2023/08/27 12:44:43;;;;;;;3.15;1.30;;;16.80;75.30;;;;;;4993919;28;20077;-86
2023/08/27 12:47:12;;;;;;;3.37;0.80;;;16.80;75.00;;;;;;4993558;28;20068;-87
2023/08/27 12:49:40;;;;;;;2.60;0.80;;;16.90;75.30;;;;;;4992163;28;20277;-86
2023/08/27 12:52:07;;;;;;;2.08;0.60;;;16.90;74.20;;;;;;5000394;28;20070;-87
2023/08/27 12:54:34;;;;;;;2.95;0.80;;;16.90;73.00;;;;;;4996988;28;20086;-91
2023/08/27 12:57:03;;;;;;;2.53;0.75;;;16.90;71.80;;;;;;4998422;28;20054;-88
2023/08/27 12:59:31;;;;;;;3.27;0.80;;;16.90;71.40;;;;;;4998014;28;20050;-89
2023/08/27 13:01:58;;;;;;;3.45;1.00;;;16.80;71.70;;;;;;4998882;28;20356;-90
2023/08/27 13:04:29;;;;;;;3.03;1.08;;;16.80;72.20;;;;;;4987239;28;20058;-87
2023/08/27 13:06:56;;;;;;;3.05;0.80;;;16.80;72.30;;;;;;4992079;28;20055;-90
2023/08/27 13:09:24;;;;;;;3.45;0.77;;;16.90;71.60;;;;;;4996693;28;20072;-88
2023/08/27 13:11:52;;;;;;;3.27;0.90;;;16.90;71.50;;;;;;4996659;28;20062;-86
2023/08/27 13:14:28;;;;;;;2.78;0.80;;;16.90;72.10;;;;;;5004837;28;20342;-87
2023/08/27 13:16:55;;;;;;;2.80;0.88;;;16.80;72.50;;;;;;4980967;28;20126;-87
2023/08/27 13:19:23;;;;;;;2.20;0.60;;;16.80;72.90;;;;;;4978453;28;20500;-88
2023/08/27 13:21:51;;;;;;;3.60;1.00;;;16.90;70.20;;;;;;4976573;28;20054;-88
2023/08/27 13:24:18;;;;;;;2.53;0.90;;;16.80;70.50;;;;;;4985991;28;20051;-89
2023/08/27 13:26:47;;;;;;;2.80;1.00;;;16.80;70.50;;;;;;4993078;28;20239;-88
2023/08/27 13:29:16;;;;;;;3.60;1.50;;;16.70;71.20;;;;;;4996353;28;20081;-93
2023/08/27 13:31:50;;;;;;;3.00;1.00;;;16.70;71.60;;;;;;4988799;28;20073;-86
2023/08/27 13:34:18;;;;;;;4.88;2.03;;;16.60;72.20;;;;;;4991159;28;20046;-88
2023/08/27 13:36:45;;;;;;;3.77;1.87;;;16.60;72.60;;;;;;4988580;28;20528;-86
2023/08/27 13:39:20;;;;;;;3.50;1.50;;;16.50;72.90;;;;;;5005816;28;21022;-89
2023/08/27 13:41:47;;;;;;;3.85;1.40;;;16.50;73.30;;;;;;4976771;28;20051;-89
2023/08/27 13:44:14;;;;;;;2.70;0.90;;;16.40;73.70;;;;;;4975820;28;20134;-86
2023/08/27 13:46:43;;;;;;;3.90;1.20;;;16.50;74.40;;;;;;4992562;28;20156;-88
2023/08/27 13:49:12;;;;;;;3.83;1.20;;;16.40;74.70;;;;;;4993520;28;20055;-88
2023/08/27 13:51:40;;;;;;;3.50;0.90;;;16.50;75.00;;;;;;4974649;28;20275;-84
2023/08/27 13:54:09;;;;;;;3.63;1.20;;;16.50;75.50;;;;;;4995043;28;20778;-89
2023/08/27 13:56:37;;;;;;;2.67;0.70;;;16.60;75.90;;;;;;4976522;28;20087;-89
2023/08/27 13:59:04;;;;;;;2.90;0.90;;;16.70;76.00;;;;;;5008256;28;20088;-88
2023/08/27 14:01:31;;;;;;;2.57;0.63;;;16.80;74.40;;;;;;4992659;28;20058;-87
2023/08/27 14:03:59;;;;;;;2.60;0.50;;;16.80;74.30;;;;;;4972439;28;20258;-88
2023/08/27 14:06:27;;;;;;;2.15;0.52;;;16.90;73.80;;;;;;4985416;28;20146;-87
2023/08/27 14:08:55;;;;;;;2.50;0.30;;;17.00;72.60;;;;;;5007126;28;20058;-87
2023/08/27 14:11:25;;;;;;;3.65;0.55;;;17.20;72.00;;;;;;4979398;28;20142;-88
2023/08/27 14:14:19;;;;;;;2.33;0.40;;;17.20;71.00;;;;;;4993087;28;20086;-93
2023/08/27 14:16:46;;;;;;;2.97;0.60;;;17.30;70.00;;;;;;4978581;28;20314;-91
2023/08/27 14:19:17;;;;;;;3.33;0.55;;;17.40;69.30;;;;;;4984563;28;20050;-92
2023/08/27 14:21:49;;;;;;;2.00;0.43;;;17.40;69.00;;;;;;4998152;28;20078;-90
2023/08/27 14:24:16;;;;;;;2.88;0.52;;;17.30;69.50;;;;;;4993589;28;20054;-84
2023/08/27 14:26:44;;;;;;;2.43;0.23;;;17.40;69.20;;;;;;5011240;28;20505;-89
2023/08/27 14:29:12;;;;;;;4.03;0.55;;;17.30;69.40;;;;;;4997839;28;20270;-91
2023/08/27 14:31:39;;;;;;;2.42;0.50;;;17.30;69.30;;;;;;4986852;28;20051;-92
2023/08/27 14:34:09;;;;;;;2.67;0.50;;;17.20;69.90;;;;;;4984760;28;20058;-93
2023/08/27 14:36:37;;;;;;;2.72;0.50;;;17.20;70.40;;;;;;4993168;28;21026;-94
2023/08/27 14:39:16;;;;;;;2.80;0.90;;;17.20;70.80;;;;;;4990179;28;20062;-92
2023/08/27 14:41:49;;;;;;;2.20;0.60;;;17.20;71.20;;;;;;4997111;28;20249;-93
2023/08/27 14:44:16;;;;;;;3.53;0.60;;;17.20;71.40;;;;;;4995535;28;20051;-91
2023/08/27 14:47:14;;;;;;;2.70;0.70;;;17.20;71.90;;;;;;4997294;28;20077;-93
2023/08/27 14:49:41;;;;;;;4.72;1.70;;;17.20;72.30;;;;;;4995837;28;20054;-88
2023/08/27 14:52:12;;;;;;;3.83;1.77;;;17.10;72.80;;;;;;4997760;28;20122;-90
2023/08/27 14:54:45;;;;;;;3.35;1.00;;;17.00;73.00;;;;;;4997523;28;20246;-89
2023/08/27 14:57:13;;;;;;;3.35;1.00;;;17.00;72.70;;;;;;4979438;28;20101;-90
2023/08/27 14:59:42;;;;;;;3.60;0.80;;;16.80;72.60;;;;;;4990127;28;20086;-89
2023/08/27 15:02:13;;;;;;;2.40;0.57;;;16.70;72.70;;;;;;4978994;28;20058;-89
2023/08/27 15:04:40;;;;;;;2.83;0.80;;;16.60;72.90;;;;;;4985699;28;20059;-87
2023/08/27 15:07:07;;;;;;;3.17;0.68;;;16.60;72.90;;;;;;4974470;28;20269;-84
2023/08/27 15:09:35;;;;;;;2.83;0.43;;;16.50;73.10;;;;;;4989871;28;20631;-83
2023/08/27 15:12:05;;;;;;;2.60;0.40;;;16.50;73.00;;;;;;4989712;28;20044;-86
2023/08/27 15:14:32;;;;;;;2.28;0.50;;;16.50;72.90;;;;;;5006161;28;20090;-83
2023/08/27 15:17:00;;;;;;;2.50;0.40;;;16.40;73.00;;;;;;5008168;28;20536;-86
2023/08/27 15:19:28;;;;;;;2.40;0.50;;;16.40;73.20;;;;;;4991002;28;20290;-89
2023/08/27 15:21:59;;;;;;;2.47;0.68;;;16.50;73.20;;;;;;4984227;28;20154;-90
2023/08/27 15:24:26;;;;;;;1.95;0.40;;;16.50;73.00;;;;;;4997431;28;20512;-90
2023/08/27 15:27:01;;;;;;;3.42;0.60;;;16.50;73.20;;;;;;4997678;28;20887;-91
2023/08/27 15:29:31;;;;;;;2.50;0.73;;;16.50;73.30;;;;;;4998082;28;20495;-90
2023/08/27 15:32:08;;;;;;;4.85;0.80;;;16.50;73.90;;;;;;5001725;28;20999;-93
2023/08/27 15:34:36;;;;;;;3.63;0.70;;;16.50;74.70;;;;;;5017845;28;20063;-90
2023/08/27 15:37:05;;;;;;;4.78;1.10;;;16.50;75.00;;;;;;4993493;28;20513;-90
2023/08/27 15:39:39;;;;;;;4.05;0.80;;;16.50;75.10;;;;;;5000315;28;20054;-93
2023/08/27 15:42:12;;;;;;;3.63;0.90;;;16.50;75.10;;;;;;4986003;28;20050;-91
2023/08/27 15:44:46;;;;;;;3.95;1.15;;;16.50;74.80;;;;;;4990540;28;20696;-90
2023/08/27 15:47:17;;;;;;;3.17;0.85;;;16.50;74.90;;;;;;5017551;28;20107;-91
2023/08/27 15:49:44;;;;;;;3.55;0.93;;;16.40;75.10;;;;;;5001202;28;20852;-92
2023/08/27 15:52:11;;;;;;;2.70;0.90;;;16.40;75.30;;;;;;4998633;28;20138;-85
2023/08/27 15:54:38;;;;;;;3.23;0.93;;;16.40;75.30;;;;;;4990107;28;20142;-86
2023/08/27 15:57:06;;;;;;;4.07;0.90;;;16.40;75.40;;;;;;4994052;28;20345;-85
2023/08/27 15:59:34;;;;;;;3.35;0.90;;;16.40;75.50;;;;;;4985423;28;20503;-87
2023/08/27 16:02:02;;;;;;;3.00;1.00;;;16.40;75.90;;;;;;4983120;28;20129;-87
2023/08/27 16:04:39;;;;;;;4.68;1.00;;;16.40;76.30;;;;;;5016302;28;20058;-86
2023/08/27 16:07:09;;;;;;;2.80;0.70;;;16.40;76.50;;;;;;4997800;28;21099;-89
2023/08/27 16:09:42;;;;;;;3.22;0.95;;;16.40;76.90;;;;;;5015225;28;20290;-90
2023/08/27 16:12:09;;;;;;;2.90;0.80;;;16.40;77.00;;;;;;4999046;28;20046;-87
2023/08/27 16:14:39;;;;;;;2.70;0.70;;;16.40;77.00;;;;;;5000429;28;20078;-90
2023/08/27 16:17:08;;;;;;;3.17;0.70;;;16.40;76.90;;;;;;4998286;28;20137;-83
2023/08/27 16:19:42;;;;;;;3.23;0.80;;;16.40;76.00;;;;;;4998707;28;20063;-89
2023/08/27 16:22:10;;;;;;;2.70;0.80;;;16.40;75.20;;;;;;4991997;28;20278;-92